• Join FlightAware (Why Join?)
  • Login
  • US Flag 
04:04AM EDT


 

Airport Tracker/Info


-or-


 

Live Flight TrackerFlight Track Log ✈ N96GT ✈ 16-Nov-2013 ✈ KHTO - KGHG

Flight Track Log - Related Links

Times and Time Zones

All times are in EST time to prevent confusion due to time zone crossing. See the N96GT flight status page for this flight to view local times or setup timezone preferences in your user account.

Time Position Orientation Groundspeed Altitude Reporting Facility
EST Latitude Longitude Course Direction KTS MPH feet Rate Location/Type
02:33PM 41.0600 -72.1717 44° Northeast 109 125 3,500  Level Boston Center
02:33PM 41.0769 -72.1503 44° Northeast 109 125 3,800 480 Climbing Boston Center
02:34PM 41.0808 -72.1425 56° Northeast 109 125 4,000 480 Climbing Boston Center
02:34PM 41.0983 -72.1208 43° Northeast 116 133 4,300 420 Climbing Boston Center
02:35PM 41.1022 -72.1103 64° Northeast 116 133 4,500 480 Climbing Boston Center
02:35PM 41.1203 -72.0892 41° Northeast 117 135 4,800 480 Climbing Boston Center
02:36PM 41.1247 -72.0789 60° Northeast 117 135 5,000 540 Climbing Boston Center
02:36PM 41.1447 -72.0553 42° Northeast 116 133 5,400 480 Climbing Boston Center
02:37PM 41.1511 -72.0436 54° Northeast 113 130 5,500 60 Climbing Boston Center
02:37PM 41.1667 -72.0233 44° Northeast 129 148 5,500  Level Boston Center
02:38PM 41.1767 -72.0072 50° Northeast 134 154 5,500  Level Boston Center
02:38PM 41.1939 -71.9875 41° Northeast 137 158 5,500  Level Boston Center
02:39PM 41.2025 -71.9717 54° Northeast 136 157 5,500  Level Boston Center
02:39PM 41.2194 -71.9483 46° Northeast 140 161 5,500  Level Boston Center
02:40PM 41.2281 -71.9350 49° Northeast 134 154 5,500  Level Boston Center
02:40PM 41.2419 -71.9136 49° Northeast 137 158 5,500 60 Level Boston Center
02:41PM 41.2547 -71.8964 45° Northeast 136 157 5,600  Climbing Boston Center
02:41PM 41.2658 -71.8822 44° Northeast 133 153 5,500 -120 Descending Boston Center
02:42PM 41.2819 -71.8597 46° Northeast 132 152 5,500  Level Boston Center
02:42PM 41.2908 -71.8456 50° Northeast 135 155 5,500  Level Boston Center
02:43PM 41.3078 -71.8244 43° Northeast 133 153 5,500  Level Boston Center
02:43PM 41.3158 -71.8089 55° Northeast 133 153 5,500  Level Boston Center
02:44PM 41.3328 -71.7883 42° Northeast 134 154 5,500  Level Boston Center
02:44PM 41.3461 -71.7683 48° Northeast 134 154 5,500  Level Boston Center
02:45PM 41.3589 -71.7481 50° Northeast 134 154 5,500  Level Boston Center
02:45PM 41.3708 -71.7317 46° Northeast 134 154 5,500  Level Boston Center
02:46PM 41.3850 -71.7144 42° Northeast 129 148 5,500  Level Boston Center
02:46PM 41.3958 -71.6947 54° Northeast 139 160 5,500  Level Boston Center
02:47PM 41.4094 -71.6769 44° Northeast 134 154 5,500  Level Boston Center
02:47PM 41.4203 -71.6608 48° Northeast 130 150 5,500  Level Boston Center
02:48PM 41.4347 -71.6397 48° Northeast 127 146 5,500  Level Boston Center
02:49PM 41.4483 -71.6192 49° Northeast 131 151 5,500  Level Boston Center
02:49PM 41.4606 -71.6031 45° Northeast 135 155 5,500  Level Boston Center
02:50PM 41.4733 -71.5825 50° Northeast 133 153 5,500  Level Boston Center
02:50PM 41.4853 -71.5669 44° Northeast 133 153 5,500  Level Boston Center
02:50PM 41.4972 -71.5508 45° Northeast 128 147 5,500  Level Boston Center
02:51PM 41.5114 -71.5311 46° Northeast 125 144 5,500  Level Boston Center
02:51PM 41.5189 -71.5186 51° Northeast 122 140 5,500  Level Boston Center
02:52PM 41.5344 -71.4972 46° Northeast 124 143 5,500  Level Boston Center
02:52PM 41.5439 -71.4817 51° Northeast 128 147 5,500  Level Boston Center
02:53PM 41.5586 -71.4619 45° Northeast 129 148 5,500  Level Boston Center
02:54PM 41.5686 -71.4447 52° Northeast 129 148 5,500  Level Boston Center
02:54PM 41.5831 -71.4261 44° Northeast 132 152 5,500  Level Boston Center
02:54PM 41.5906 -71.4122 54° Northeast 134 154 5,500  Level Boston Center
02:55PM 41.6094 -71.3872 45° Northeast 132 152 5,500 -120 Level Boston Center
02:56PM 41.6186 -71.3706 54° Northeast 128 147 5,400  Descending Boston Center
02:56PM 41.6339 -71.3517 43° Northeast 132 152 5,500 60 Climbing Boston Center
02:56PM 41.6397 -71.3408 54° Northeast 131 151 5,500  Level Boston Center
02:57PM 41.6575 -71.3169 45° Northeast 127 146 5,500  Level Boston Center
02:57PM 41.6639 -71.3067 50° Northeast 124 143 5,500  Level Boston Center
02:58PM 41.6828 -71.2808 46° Northeast 124 143 5,500  Level Boston Center
02:58PM 41.6889 -71.2694 54° Northeast 127 146 5,500  Level Boston Center
02:59PM 41.7064 -71.2464 45° Northeast 126 145 5,500  Level Boston Center
03:00PM 41.7131 -71.2350 52° Northeast 125 144 5,500  Level Boston Center
03:00PM 41.7300 -71.2125 45° Northeast 125 144 5,500  Level Boston Center
03:01PM 41.7372 -71.2006 51° Northeast 126 145 5,500  Level Boston Center
03:01PM 41.7561 -71.1750 45° Northeast 128 147 5,500 -120 Level Boston Center
03:02PM 41.7622 -71.1633 55° Northeast 127 146 5,400  Descending Boston Center
03:02PM 41.7792 -71.1406 45° Northeast 125 144 5,500 60 Climbing Boston Center
03:03PM 41.7864 -71.1289 50° Northeast 123 142 5,500  Level Boston Center
03:04PM 41.8106 -71.0944 47° Northeast 124 143 5,500  Level Boston Center
03:04PM 41.8272 -71.0711 46° Northeast 124 143 5,500  Level Boston Center
03:05PM 41.8503 -71.0364 48° Northeast 125 144 5,500  Level Boston Center
03:06PM 41.8739 -71.0031 46° Northeast 123 142 5,500 -60 Level Boston Center
03:07PM 41.9006 -70.9678 45° Northeast 123 142 5,400 -120 Descending Boston Center
03:09PM 41.9294 -70.9248 48° Northeast  Level Estimated
03:16PM 42.0833 -70.6667 51° Northeast  Level FlightAware Approximate
03:17PM 42.0983 -70.6721 51° Northeast  Level Estimated